createdAt,value
2022-12-31T00:01:15.607Z,16.20
2022-12-31T00:03:43.063Z,16.20
2022-12-31T00:06:21.451Z,16.10
2022-12-31T00:08:51.900Z,16.10
2022-12-31T00:11:19.157Z,16.10
2022-12-31T00:13:48.983Z,16.10
2022-12-31T00:16:28.360Z,16.10
2022-12-31T00:18:59.149Z,16.10
2022-12-31T00:21:33.399Z,16.10
2022-12-31T00:24:03.496Z,16.10
2022-12-31T00:26:34.408Z,16.10
2022-12-31T00:29:04.037Z,16.10
2022-12-31T00:31:33.494Z,16.10
2022-12-31T00:34:00.615Z,16.10
2022-12-31T00:36:30.694Z,16.10
2022-12-31T00:39:00.722Z,16.10
2022-12-31T00:41:28.200Z,16.10
2022-12-31T00:43:58.406Z,16.10
2022-12-31T00:46:26.397Z,16.10
2022-12-31T00:48:55.571Z,16.20
2022-12-31T00:51:27.435Z,16.20
2022-12-31T00:53:58.712Z,16.20
2022-12-31T00:56:32.296Z,16.30
2022-12-31T00:59:07.350Z,16.30
2022-12-31T01:01:37.019Z,16.30
2022-12-31T01:04:16.766Z,16.30
2022-12-31T01:06:46.121Z,16.40
2022-12-31T01:09:14.846Z,16.40
2022-12-31T01:11:44.237Z,16.50
2022-12-31T01:14:19.845Z,16.50
2022-12-31T01:16:51.875Z,16.50
2022-12-31T01:19:23.049Z,16.60
2022-12-31T01:21:50.637Z,16.60
2022-12-31T01:24:17.997Z,16.60
2022-12-31T01:26:49.210Z,16.70
2022-12-31T01:29:16.921Z,16.70
2022-12-31T01:31:46.355Z,16.70
2022-12-31T01:34:18.240Z,16.70
2022-12-31T01:36:47.207Z,16.70
2022-12-31T01:39:13.801Z,16.70
2022-12-31T01:41:43.457Z,16.70
2022-12-31T01:44:25.126Z,16.70
2022-12-31T01:47:06.870Z,16.80
2022-12-31T01:49:47.217Z,16.80
2022-12-31T01:52:31.396Z,16.80
2022-12-31T01:55:11.859Z,16.80
2022-12-31T01:57:41.161Z,16.80
2022-12-31T02:00:16.205Z,16.90
2022-12-31T02:02:46.576Z,16.90
2022-12-31T02:05:41.961Z,16.90
2022-12-31T02:08:12.243Z,17.00
2022-12-31T02:10:39.101Z,17.00
2022-12-31T02:13:06.276Z,17.10
2022-12-31T02:16:07.937Z,17.10
2022-12-31T02:18:56.522Z,17.20
2022-12-31T02:21:42.873Z,17.20
2022-12-31T02:24:28.438Z,17.30
2022-12-31T02:27:06.440Z,17.30
2022-12-31T02:29:48.202Z,17.40
2022-12-31T02:32:29.832Z,17.40
2022-12-31T02:35:02.688Z,17.50
2022-12-31T02:37:32.118Z,17.50
2022-12-31T02:39:59.927Z,17.60
2022-12-31T02:42:26.549Z,17.70
2022-12-31T02:45:04.599Z,17.70
2022-12-31T02:47:52.400Z,17.70
2022-12-31T02:50:36.299Z,17.80
2022-12-31T02:53:08.396Z,17.80
2022-12-31T02:55:48.930Z,17.90
2022-12-31T02:58:52.227Z,17.90
2022-12-31T03:01:52.102Z,17.90
2022-12-31T03:04:38.454Z,18.00
2022-12-31T03:07:11.428Z,18.00
2022-12-31T03:09:41.307Z,18.00
2022-12-31T03:12:31.072Z,18.00
2022-12-31T03:15:00.843Z,18.10
2022-12-31T03:17:27.725Z,18.00
2022-12-31T03:20:15.371Z,18.00
2022-12-31T03:22:43.145Z,18.10
2022-12-31T03:25:32.809Z,18.00
2022-12-31T03:28:00.914Z,18.00
2022-12-31T03:30:33.724Z,17.90
2022-12-31T03:33:00.902Z,17.90
2022-12-31T03:35:29.543Z,17.90
2022-12-31T03:37:56.631Z,17.90
2022-12-31T03:40:25.301Z,17.90
2022-12-31T03:42:54.425Z,17.80
2022-12-31T03:45:23.560Z,17.80
2022-12-31T03:47:52.385Z,17.80
2022-12-31T03:50:19.872Z,17.80
2022-12-31T03:52:46.541Z,17.80
2022-12-31T03:55:18.425Z,17.80
2022-12-31T03:57:47.496Z,17.80
2022-12-31T04:00:18.398Z,17.80
2022-12-31T04:02:46.633Z,17.80
2022-12-31T04:05:19.013Z,17.70
2022-12-31T04:07:45.595Z,17.70
2022-12-31T04:10:15.468Z,17.70
2022-12-31T04:12:45.249Z,17.70
2022-12-31T04:15:21.648Z,17.70
2022-12-31T04:17:48.438Z,17.70
2022-12-31T04:20:17.587Z,17.70
2022-12-31T04:22:47.605Z,17.70
2022-12-31T04:25:14.226Z,17.70
2022-12-31T04:27:44.725Z,17.80
2022-12-31T04:30:13.387Z,17.80
2022-12-31T04:32:47.860Z,17.80
2022-12-31T04:35:19.417Z,17.90
2022-12-31T04:37:46.140Z,17.90
2022-12-31T04:40:17.108Z,17.90
2022-12-31T04:42:46.170Z,18.00
2022-12-31T04:45:20.362Z,18.10
2022-12-31T04:47:49.689Z,18.10
2022-12-31T04:50:24.272Z,18.10
2022-12-31T04:52:50.901Z,18.10
2022-12-31T04:55:18.579Z,18.10
2022-12-31T04:57:45.197Z,18.20
2022-12-31T05:00:14.390Z,18.20
2022-12-31T05:02:46.021Z,18.20
2022-12-31T05:05:13.061Z,18.20
2022-12-31T05:07:44.690Z,18.20
2022-12-31T05:10:15.563Z,18.30
2022-12-31T05:12:44.448Z,18.30
2022-12-31T05:15:11.179Z,18.30
2022-12-31T05:17:39.862Z,18.40
2022-12-31T05:20:07.824Z,18.40
2022-12-31T05:22:36.749Z,18.40
2022-12-31T05:25:03.615Z,18.50
2022-12-31T05:27:31.002Z,18.50
2022-12-31T05:30:01.681Z,18.50
2022-12-31T05:32:29.576Z,18.50
2022-12-31T05:35:04.189Z,18.60
2022-12-31T05:37:31.528Z,18.60
2022-12-31T05:39:58.378Z,18.60
2022-12-31T05:42:25.626Z,18.70
2022-12-31T05:44:52.292Z,18.70
2022-12-31T05:47:20.342Z,18.70
2022-12-31T05:49:49.455Z,18.70
2022-12-31T05:52:19.114Z,18.70
2022-12-31T05:54:45.871Z,18.70
2022-12-31T05:57:12.967Z,18.70
2022-12-31T05:59:42.140Z,18.70
2022-12-31T06:02:11.147Z,18.70
2022-12-31T06:04:37.797Z,18.80
2022-12-31T06:07:07.384Z,18.70
2022-12-31T06:09:34.053Z,18.80
2022-12-31T06:12:05.192Z,18.80
2022-12-31T06:14:33.733Z,18.80
2022-12-31T06:17:02.709Z,18.80
2022-12-31T06:19:31.754Z,18.90
2022-12-31T06:22:01.791Z,18.90
2022-12-31T06:24:28.404Z,18.90
2022-12-31T06:26:55.062Z,18.90
2022-12-31T06:29:22.953Z,18.90
2022-12-31T06:31:55.509Z,18.90
2022-12-31T06:34:29.806Z,18.90
2022-12-31T06:36:56.603Z,19.00
2022-12-31T06:39:25.786Z,18.90
2022-12-31T06:41:52.454Z,19.00
2022-12-31T06:44:23.987Z,19.00
2022-12-31T06:46:54.496Z,19.00
2022-12-31T06:49:31.803Z,19.00
2022-12-31T06:52:02.669Z,19.00
2022-12-31T06:54:29.314Z,19.00
2022-12-31T06:56:56.191Z,19.10
2022-12-31T06:59:28.551Z,19.00
2022-12-31T07:02:15.468Z,19.00
2022-12-31T07:05:07.228Z,19.00
2022-12-31T07:07:57.881Z,19.00
2022-12-31T07:10:45.055Z,19.00
2022-12-31T07:13:43.028Z,19.00
2022-12-31T07:16:45.600Z,19.00
2022-12-31T07:19:42.815Z,19.00
2022-12-31T07:22:21.134Z,18.90
2022-12-31T07:24:50.805Z,18.90
2022-12-31T07:27:48.291Z,18.90
2022-12-31T07:30:25.006Z,18.90
2022-12-31T07:32:59.905Z,18.90
2022-12-31T07:35:34.716Z,18.90
2022-12-31T07:38:08.696Z,18.90
2022-12-31T07:40:47.206Z,18.90
2022-12-31T07:43:26.058Z,18.90
2022-12-31T07:46:11.945Z,18.90
2022-12-31T07:48:39.149Z,19.00
2022-12-31T07:51:06.222Z,19.00
2022-12-31T07:53:33.221Z,19.00
2022-12-31T07:56:02.446Z,19.10
2022-12-31T07:58:53.183Z,19.10
2022-12-31T08:01:39.540Z,19.10
2022-12-31T08:04:18.756Z,19.10
2022-12-31T08:07:03.385Z,19.10
2022-12-31T08:09:46.693Z,19.20
2022-12-31T08:12:15.622Z,19.20
2022-12-31T08:14:48.324Z,19.20
2022-12-31T08:17:17.660Z,19.20
2022-12-31T08:19:45.756Z,19.20
2022-12-31T08:22:34.989Z,19.20
2022-12-31T08:25:22.756Z,19.20
2022-12-31T08:28:10.105Z,19.20
2022-12-31T08:30:41.447Z,19.20
2022-12-31T08:33:27.490Z,19.20
2022-12-31T08:36:20.497Z,19.20
2022-12-31T08:39:08.996Z,19.20
2022-12-31T08:41:43.532Z,19.20
2022-12-31T08:44:39.001Z,19.30
2022-12-31T08:47:35.489Z,19.30
2022-12-31T08:50:05.491Z,19.30
2022-12-31T08:52:32.268Z,19.40
2022-12-31T08:54:59.096Z,19.40
2022-12-31T08:57:33.516Z,19.40
2022-12-31T09:00:18.130Z,19.40
2022-12-31T09:03:17.573Z,19.50
2022-12-31T09:05:53.350Z,19.50
2022-12-31T09:08:36.680Z,19.50
2022-12-31T09:11:13.548Z,19.60
2022-12-31T09:14:04.693Z,19.50
2022-12-31T09:16:37.746Z,19.60
2022-12-31T09:19:04.538Z,19.60
2022-12-31T09:21:32.417Z,19.60
2022-12-31T09:24:04.409Z,19.60
2022-12-31T09:27:15.559Z,19.60
2022-12-31T09:30:03.661Z,19.70
2022-12-31T09:33:01.427Z,19.70
2022-12-31T09:35:56.277Z,19.70
2022-12-31T09:38:33.354Z,19.70
2022-12-31T09:41:16.591Z,19.70
2022-12-31T09:44:20.843Z,19.70
2022-12-31T09:47:15.489Z,19.70
2022-12-31T09:49:51.146Z,19.70
2022-12-31T09:52:43.102Z,19.80
2022-12-31T09:55:12.517Z,19.80
2022-12-31T09:58:09.892Z,19.80
2022-12-31T10:00:53.673Z,19.80
2022-12-31T10:03:36.329Z,19.80
2022-12-31T10:06:22.186Z,19.80
2022-12-31T10:09:17.865Z,19.90
2022-12-31T10:12:06.110Z,19.90
2022-12-31T10:14:57.292Z,19.90
2022-12-31T10:18:15.939Z,20.00
2022-12-31T10:21:03.650Z,20.00
2022-12-31T10:23:36.347Z,20.00
2022-12-31T10:26:02.959Z,20.00
2022-12-31T10:29:08.299Z,20.00
2022-12-31T10:31:40.406Z,20.10
2022-12-31T10:34:14.930Z,20.10
2022-12-31T10:37:06.200Z,20.10
2022-12-31T10:39:47.439Z,20.10
2022-12-31T10:42:55.828Z,20.10
2022-12-31T10:45:49.522Z,20.20
2022-12-31T10:48:22.148Z,20.20
2022-12-31T10:51:01.035Z,20.20
2022-12-31T10:53:49.164Z,20.20
2022-12-31T10:56:30.840Z,20.20
2022-12-31T10:59:42.678Z,20.30
2022-12-31T11:02:33.660Z,20.30
2022-12-31T11:05:38.275Z,20.40
2022-12-31T11:08:40.149Z,20.40
2022-12-31T11:11:53.774Z,20.50
2022-12-31T11:14:44.343Z,20.50
2022-12-31T11:17:48.294Z,20.50
2022-12-31T11:20:42.750Z,20.50
2022-12-31T11:23:31.020Z,20.50
2022-12-31T11:26:29.436Z,20.50
2022-12-31T11:29:05.781Z,20.60
2022-12-31T11:32:10.124Z,20.50
2022-12-31T11:34:59.364Z,20.50
2022-12-31T11:37:53.854Z,20.50
2022-12-31T11:40:44.694Z,20.50
2022-12-31T11:43:19.943Z,20.50
2022-12-31T11:46:16.094Z,20.40
2022-12-31T11:49:08.321Z,20.40
2022-12-31T11:51:53.866Z,20.40
2022-12-31T11:54:42.355Z,20.40
2022-12-31T11:57:35.658Z,20.30
2022-12-31T12:00:21.763Z,20.30
2022-12-31T12:03:01.044Z,20.20
2022-12-31T12:05:28.379Z,20.20
2022-12-31T12:07:57.122Z,20.20
2022-12-31T12:10:35.227Z,20.20
2022-12-31T12:13:26.536Z,20.10
2022-12-31T12:16:05.548Z,20.10
2022-12-31T12:18:47.597Z,20.00
2022-12-31T12:21:20.845Z,20.00
2022-12-31T12:23:58.019Z,19.90
2022-12-31T12:26:37.405Z,19.90
2022-12-31T12:29:09.869Z,19.80
2022-12-31T12:31:37.916Z,19.80
2022-12-31T12:34:05.986Z,19.80
2022-12-31T12:36:33.237Z,19.80
2022-12-31T12:39:06.859Z,19.80
2022-12-31T12:41:33.599Z,19.80
2022-12-31T12:44:06.018Z,19.80
2022-12-31T12:46:34.439Z,19.90
2022-12-31T12:49:03.062Z,19.90
2022-12-31T12:51:59.474Z,19.90
2022-12-31T12:54:36.740Z,20.00
2022-12-31T12:57:30.647Z,20.00
2022-12-31T13:00:09.530Z,20.00
2022-12-31T13:02:48.708Z,20.00
2022-12-31T13:05:42.215Z,20.00
2022-12-31T13:08:29.248Z,20.00
2022-12-31T13:11:17.768Z,20.00
2022-12-31T13:13:55.696Z,20.00
2022-12-31T13:16:56.460Z,20.00
2022-12-31T13:19:49.173Z,19.90
2022-12-31T13:22:37.657Z,19.90
2022-12-31T13:25:27.591Z,20.00
2022-12-31T13:27:58.126Z,20.00
2022-12-31T13:30:37.951Z,19.90
2022-12-31T13:33:14.017Z,19.90
2022-12-31T13:35:46.618Z,19.90
2022-12-31T13:38:15.537Z,20.00
2022-12-31T13:40:54.287Z,20.00
2022-12-31T13:43:38.065Z,20.00
2022-12-31T13:46:19.057Z,20.00
2022-12-31T13:48:55.486Z,20.00
2022-12-31T13:51:34.721Z,20.00
2022-12-31T13:54:09.629Z,20.00
2022-12-31T13:56:38.845Z,20.00
2022-12-31T13:59:16.606Z,20.00
2022-12-31T14:02:06.599Z,20.00
2022-12-31T14:04:37.838Z,20.00
2022-12-31T14:07:19.502Z,20.00
2022-12-31T14:09:46.579Z,20.00
2022-12-31T14:12:19.214Z,19.90
2022-12-31T14:15:00.406Z,19.90
2022-12-31T14:17:48.616Z,19.90
2022-12-31T14:20:30.934Z,19.90
2022-12-31T14:23:06.194Z,19.90
2022-12-31T14:25:51.310Z,19.80
2022-12-31T14:28:27.063Z,19.80
2022-12-31T14:31:01.690Z,19.80
2022-12-31T14:34:12.751Z,19.70
2022-12-31T14:36:59.791Z,19.70
2022-12-31T14:39:53.996Z,19.60
2022-12-31T14:42:32.680Z,19.60
2022-12-31T14:45:06.902Z,19.50
2022-12-31T14:47:54.567Z,19.50
2022-12-31T14:50:30.545Z,19.40
2022-12-31T14:53:00.185Z,19.40
2022-12-31T14:55:29.037Z,19.40
2022-12-31T15:01:14.747Z,19.20
2022-12-31T15:03:45.877Z,19.20
2022-12-31T15:06:12.835Z,19.10
2022-12-31T15:09:08.536Z,19.10
2022-12-31T15:11:47.457Z,19.00
2022-12-31T15:14:16.790Z,19.00
2022-12-31T15:16:52.651Z,18.90
2022-12-31T15:19:19.261Z,18.90
2022-12-31T15:21:51.674Z,18.90
2022-12-31T15:24:24.223Z,18.90
2022-12-31T15:27:02.964Z,18.80
2022-12-31T15:29:31.200Z,18.80
2022-12-31T15:32:00.049Z,18.70
2022-12-31T15:34:32.847Z,18.70
2022-12-31T15:37:06.059Z,18.70
2022-12-31T15:39:32.623Z,18.70
2022-12-31T15:44:56.533Z,18.60
2022-12-31T15:47:33.690Z,18.60
2022-12-31T15:50:05.833Z,18.60
2022-12-31T15:52:38.368Z,18.60
2022-12-31T15:55:06.704Z,18.60
2022-12-31T15:57:38.958Z,18.50
2022-12-31T16:00:07.122Z,18.50
2022-12-31T16:02:35.116Z,18.60
2022-12-31T16:05:02.882Z,18.50
2022-12-31T16:07:29.586Z,18.50
2022-12-31T16:09:59.507Z,18.40
2022-12-31T16:12:33.693Z,18.50
2022-12-31T16:15:02.355Z,18.40
2022-12-31T16:17:29.206Z,18.50
2022-12-31T16:19:58.203Z,18.40
2022-12-31T16:22:35.476Z,18.40
2022-12-31T16:25:29.803Z,18.50
2022-12-31T16:27:50.674Z,18.50
2022-12-31T16:30:24.848Z,18.50
2022-12-31T16:32:53.688Z,18.50
2022-12-31T16:35:31.040Z,18.50
2022-12-31T16:38:19.045Z,18.60
2022-12-31T16:41:00.720Z,18.60
2022-12-31T16:43:30.014Z,18.60
2022-12-31T16:46:11.135Z,18.60
2022-12-31T16:48:38.406Z,18.60
2022-12-31T16:51:06.221Z,18.50
2022-12-31T16:53:37.686Z,18.50
2022-12-31T16:56:12.786Z,18.50
2022-12-31T16:58:47.551Z,18.50
2022-12-31T17:01:22.187Z,18.50
2022-12-31T17:03:54.963Z,18.50
2022-12-31T17:06:22.547Z,18.50
2022-12-31T17:09:00.581Z,18.40
2022-12-31T17:11:41.611Z,18.40
2022-12-31T17:14:08.190Z,18.50
2022-12-31T17:16:45.202Z,18.40
2022-12-31T17:19:34.870Z,18.40
2022-12-31T17:22:05.994Z,18.40
2022-12-31T17:24:32.610Z,18.40
2022-12-31T17:27:09.699Z,18.40
2022-12-31T17:29:38.817Z,18.40
2022-12-31T17:32:28.930Z,18.40
2022-12-31T17:34:55.526Z,18.40
2022-12-31T17:37:29.726Z,18.40
2022-12-31T17:40:32.311Z,18.40
2022-12-31T17:42:48.379Z,18.30
2022-12-31T17:45:23.326Z,18.30
2022-12-31T17:47:52.325Z,18.30
2022-12-31T17:50:22.760Z,18.30
2022-12-31T17:52:53.044Z,18.30
2022-12-31T17:55:23.384Z,18.30
2022-12-31T17:57:56.577Z,18.30
2022-12-31T18:00:28.515Z,18.30
2022-12-31T18:02:55.289Z,18.30
2022-12-31T18:05:23.706Z,18.30
2022-12-31T18:07:57.741Z,18.30
2022-12-31T18:10:25.948Z,18.30
2022-12-31T18:12:52.757Z,18.30
2022-12-31T18:15:27.301Z,18.30
2022-12-31T18:17:53.917Z,18.30
2022-12-31T18:20:24.201Z,18.30
2022-12-31T18:22:55.593Z,18.20
2022-12-31T18:25:23.818Z,18.30
2022-12-31T18:27:53.563Z,18.30
2022-12-31T18:30:20.283Z,18.30
2022-12-31T18:32:49.115Z,18.30
2022-12-31T18:36:07.156Z,18.30
2022-12-31T18:38:16.679Z,18.30
2022-12-31T18:40:51.813Z,18.30
2022-12-31T18:43:24.191Z,18.30
2022-12-31T18:45:51.451Z,18.30
2022-12-31T18:48:18.677Z,18.40
2022-12-31T18:50:47.296Z,18.40
2022-12-31T18:53:19.489Z,18.40
2022-12-31T18:55:55.217Z,18.30
2022-12-31T18:58:22.068Z,18.30
2022-12-31T19:00:50.742Z,18.30
2022-12-31T19:03:25.186Z,18.30
2022-12-31T19:05:52.433Z,18.30
2022-12-31T19:08:21.077Z,18.30
2022-12-31T19:10:51.448Z,18.30
2022-12-31T19:13:20.142Z,18.30
2022-12-31T19:15:53.537Z,18.30
2022-12-31T19:18:24.749Z,18.30
2022-12-31T19:20:55.795Z,18.40
2022-12-31T19:23:26.007Z,18.30
2022-12-31T19:25:55.197Z,18.30
2022-12-31T19:28:28.802Z,18.30
2022-12-31T19:30:55.616Z,18.40
2022-12-31T19:33:25.390Z,18.40
2022-12-31T19:35:54.466Z,18.30
2022-12-31T19:38:28.563Z,18.40
2022-12-31T19:40:59.688Z,18.40
2022-12-31T19:43:26.417Z,18.40
2022-12-31T19:45:55.733Z,18.40
2022-12-31T19:48:33.026Z,18.40
2022-12-31T19:51:00.279Z,18.40
2022-12-31T19:53:27.881Z,18.40
2022-12-31T19:55:55.852Z,18.40
2022-12-31T19:58:27.837Z,18.40
2022-12-31T20:01:02.977Z,18.50
2022-12-31T20:03:33.750Z,18.50
2022-12-31T20:06:08.593Z,18.50
2022-12-31T20:08:38.618Z,18.40
2022-12-31T20:11:18.712Z,18.50
2022-12-31T20:13:48.995Z,18.50
2022-12-31T20:16:19.951Z,18.50
2022-12-31T20:18:47.774Z,18.50
2022-12-31T20:21:26.186Z,18.40
2022-12-31T20:23:56.127Z,18.40
2022-12-31T20:26:24.465Z,18.40
2022-12-31T20:28:51.847Z,18.40
2022-12-31T20:31:27.124Z,18.40
2022-12-31T20:33:59.065Z,18.40
2022-12-31T20:36:26.259Z,18.40
2022-12-31T20:38:52.959Z,18.40
2022-12-31T20:41:21.839Z,18.40
2022-12-31T20:43:49.264Z,18.50
2022-12-31T20:46:21.076Z,18.50
2022-12-31T20:48:49.717Z,18.50
2022-12-31T20:51:19.633Z,18.50
2022-12-31T20:53:51.569Z,18.50
2022-12-31T20:56:20.044Z,18.50
2022-12-31T20:58:48.980Z,18.50
2022-12-31T21:01:18.553Z,18.50
2022-12-31T21:04:06.360Z,18.50
2022-12-31T21:06:37.082Z,18.40
2022-12-31T21:09:06.109Z,18.40
2022-12-31T21:11:52.139Z,18.40
2022-12-31T21:14:21.237Z,18.40
2022-12-31T21:16:47.947Z,18.40
2022-12-31T21:19:16.638Z,18.40
2022-12-31T21:21:43.413Z,18.40
2022-12-31T21:24:10.308Z,18.40
2022-12-31T21:26:38.958Z,18.40
2022-12-31T21:29:06.559Z,18.50
2022-12-31T21:31:36.349Z,18.40
2022-12-31T21:34:03.028Z,18.40
2022-12-31T21:36:34.591Z,18.40
2022-12-31T21:39:02.206Z,18.40
2022-12-31T21:41:47.489Z,18.40
2022-12-31T21:44:16.708Z,18.40
2022-12-31T21:47:15.994Z,18.40
2022-12-31T21:49:33.297Z,18.40
2022-12-31T21:52:20.547Z,18.40
2022-12-31T21:55:05.711Z,18.40
2022-12-31T21:57:51.992Z,18.50
2022-12-31T22:00:42.674Z,18.50
2022-12-31T22:03:28.301Z,18.50
2022-12-31T22:06:16.102Z,18.40
2022-12-31T22:08:47.345Z,18.40
2022-12-31T22:11:15.837Z,18.50
2022-12-31T22:13:48.487Z,18.40
2022-12-31T22:16:20.332Z,18.40
2022-12-31T22:18:47.947Z,18.40
2022-12-31T22:21:24.528Z,18.30
2022-12-31T22:23:53.676Z,18.30
2022-12-31T22:26:25.394Z,18.30
2022-12-31T22:28:52.679Z,18.30
2022-12-31T22:31:25.767Z,18.30
2022-12-31T22:33:56.104Z,18.30
2022-12-31T22:36:28.451Z,18.30
2022-12-31T22:39:03.803Z,18.30
2022-12-31T22:41:30.864Z,18.40
2022-12-31T22:44:04.089Z,18.40
2022-12-31T22:46:32.557Z,18.40
2022-12-31T22:49:03.141Z,18.50
2022-12-31T22:51:56.360Z,18.50
2022-12-31T22:54:23.664Z,18.50
2022-12-31T22:56:54.863Z,18.50
2022-12-31T22:59:25.926Z,18.60
2022-12-31T23:01:52.607Z,18.60
2022-12-31T23:04:20.935Z,18.60
2022-12-31T23:06:47.613Z,18.70
2022-12-31T23:09:36.732Z,18.70
2022-12-31T23:12:10.273Z,18.70
2022-12-31T23:14:58.287Z,18.70
2022-12-31T23:17:45.446Z,18.70
2022-12-31T23:20:39.404Z,18.70
2022-12-31T23:23:10.345Z,18.80
2022-12-31T23:25:51.257Z,18.80
2022-12-31T23:28:24.744Z,18.80
2022-12-31T23:30:54.559Z,18.80
2022-12-31T23:33:23.754Z,18.80
2022-12-31T23:36:06.484Z,18.80
2022-12-31T23:38:33.194Z,18.80
2022-12-31T23:41:02.693Z,18.80
2022-12-31T23:43:29.355Z,18.80
2022-12-31T23:45:56.006Z,18.80
2022-12-31T23:48:24.890Z,18.80
2022-12-31T23:50:54.469Z,18.80
2022-12-31T23:53:26.448Z,18.80
2022-12-31T23:55:56.094Z,18.80
2022-12-31T23:58:29.272Z,18.80
